sensor_id;sensor_type;location;lat;lon;timestamp;P1;durP1;ratioP1;P2;durP2;ratioP2
23101;SDS011;11720;51.214;22.574;2022-10-28T00:01:27;25.40;;;13.67;;
23101;SDS011;11720;51.214;22.574;2022-10-28T00:03:54;34.33;;;15.77;;
23101;SDS011;11720;51.214;22.574;2022-10-28T00:06:34;29.00;;;14.40;;
23101;SDS011;11720;51.214;22.574;2022-10-28T00:09:28;33.33;;;15.63;;
23101;SDS011;11720;51.214;22.574;2022-10-28T00:11:56;32.53;;;15.43;;
23101;SDS011;11720;51.214;22.574;2022-10-28T00:14:38;25.03;;;12.47;;
23101;SDS011;11720;51.214;22.574;2022-10-28T00:17:12;25.90;;;12.73;;
23101;SDS011;11720;51.214;22.574;2022-10-28T00:19:38;33.40;;;16.43;;
23101;SDS011;11720;51.214;22.574;2022-10-28T00:22:04;22.53;;;12.33;;
23101;SDS011;11720;51.214;22.574;2022-10-28T00:24:30;20.53;;;12.87;;
23101;SDS011;11720;51.214;22.574;2022-10-28T00:26:56;22.07;;;11.70;;
23101;SDS011;11720;51.214;22.574;2022-10-28T00:29:28;26.77;;;12.53;;
23101;SDS011;11720;51.214;22.574;2022-10-28T00:31:56;30.50;;;13.63;;
23101;SDS011;11720;51.214;22.574;2022-10-28T00:34:22;28.97;;;13.37;;
23101;SDS011;11720;51.214;22.574;2022-10-28T00:36:48;29.53;;;12.77;;
23101;SDS011;11720;51.214;22.574;2022-10-28T00:39:21;26.70;;;13.00;;
23101;SDS011;11720;51.214;22.574;2022-10-28T00:41:49;24.73;;;13.80;;
23101;SDS011;11720;51.214;22.574;2022-10-28T00:47:16;26.13;;;12.60;;
23101;SDS011;11720;51.214;22.574;2022-10-28T00:50:12;25.40;;;12.63;;
23101;SDS011;11720;51.214;22.574;2022-10-28T00:52:43;26.47;;;12.23;;
23101;SDS011;11720;51.214;22.574;2022-10-28T00:55:12;29.87;;;13.67;;
23101;SDS011;11720;51.214;22.574;2022-10-28T00:57:40;18.80;;;10.97;;
23101;SDS011;11720;51.214;22.574;2022-10-28T01:00:06;25.30;;;12.70;;
23101;SDS011;11720;51.214;22.574;2022-10-28T01:02:34;28.17;;;12.67;;
23101;SDS011;11720;51.214;22.574;2022-10-28T01:05:12;19.37;;;11.30;;
23101;SDS011;11720;51.214;22.574;2022-10-28T01:07:41;25.83;;;12.17;;
23101;SDS011;11720;51.214;22.574;2022-10-28T01:10:07;27.47;;;12.73;;
23101;SDS011;11720;51.214;22.574;2022-10-28T01:21:17;19.23;;;10.53;;
23101;SDS011;11720;51.214;22.574;2022-10-28T01:24:05;19.97;;;10.67;;
23101;SDS011;11720;51.214;22.574;2022-10-28T01:33:24;20.67;;;11.03;;
23101;SDS011;11720;51.214;22.574;2022-10-28T01:35:48;16.53;;;10.27;;
23101;SDS011;11720;51.214;22.574;2022-10-28T01:38:47;21.00;;;10.97;;
23101;SDS011;11720;51.214;22.574;2022-10-28T01:41:35;24.57;;;10.40;;
23101;SDS011;11720;51.214;22.574;2022-10-28T01:44:26;21.87;;;10.20;;
23101;SDS011;11720;51.214;22.574;2022-10-28T01:49:53;21.10;;;10.30;;
23101;SDS011;11720;51.214;22.574;2022-10-28T01:52:32;16.73;;;10.47;;
23101;SDS011;11720;51.214;22.574;2022-10-28T01:55:03;22.93;;;11.97;;
23101;SDS011;11720;51.214;22.574;2022-10-28T01:57:37;22.90;;;10.27;;
23101;SDS011;11720;51.214;22.574;2022-10-28T02:00:05;22.60;;;10.90;;
23101;SDS011;11720;51.214;22.574;2022-10-28T02:02:50;24.40;;;11.50;;
23101;SDS011;11720;51.214;22.574;2022-10-28T02:05:35;26.60;;;13.27;;
23101;SDS011;11720;51.214;22.574;2022-10-28T02:19:55;22.77;;;11.10;;
23101;SDS011;11720;51.214;22.574;2022-10-28T02:22:15;17.23;;;10.07;;
23101;SDS011;11720;51.214;22.574;2022-10-28T02:27:43;20.70;;;11.23;;
23101;SDS011;11720;51.214;22.574;2022-10-28T02:30:16;22.63;;;9.23;;
23101;SDS011;11720;51.214;22.574;2022-10-28T02:32:46;16.53;;;9.57;;
23101;SDS011;11720;51.214;22.574;2022-10-28T02:35:18;22.13;;;10.80;;
23101;SDS011;11720;51.214;22.574;2022-10-28T02:37:57;18.67;;;10.90;;
23101;SDS011;11720;51.214;22.574;2022-10-28T02:40:26;26.03;;;11.23;;
23101;SDS011;11720;51.214;22.574;2022-10-28T02:42:58;17.53;;;9.47;;
23101;SDS011;11720;51.214;22.574;2022-10-28T02:45:29;20.20;;;10.67;;
23101;SDS011;11720;51.214;22.574;2022-10-28T02:48:02;21.30;;;10.67;;
23101;SDS011;11720;51.214;22.574;2022-10-28T02:50:41;20.17;;;11.33;;
23101;SDS011;11720;51.214;22.574;2022-10-28T02:53:15;28.60;;;10.43;;
23101;SDS011;11720;51.214;22.574;2022-10-28T02:55:49;17.70;;;10.93;;
23101;SDS011;11720;51.214;22.574;2022-10-28T02:58:18;23.20;;;11.57;;
23101;SDS011;11720;51.214;22.574;2022-10-28T03:00:49;17.93;;;9.73;;
23101;SDS011;11720;51.214;22.574;2022-10-28T03:05:51;22.13;;;10.90;;
23101;SDS011;11720;51.214;22.574;2022-10-28T03:08:17;16.40;;;9.17;;
23101;SDS011;11720;51.214;22.574;2022-10-28T03:10:43;19.13;;;10.93;;
23101;SDS011;11720;51.214;22.574;2022-10-28T03:13:09;22.70;;;10.33;;
23101;SDS011;11720;51.214;22.574;2022-10-28T03:15:35;23.77;;;11.07;;
23101;SDS011;11720;51.214;22.574;2022-10-28T03:18:01;18.63;;;10.87;;
23101;SDS011;11720;51.214;22.574;2022-10-28T03:20:30;22.77;;;11.47;;
23101;SDS011;11720;51.214;22.574;2022-10-28T03:22:56;20.53;;;11.77;;
23101;SDS011;11720;51.214;22.574;2022-10-28T03:25:24;21.40;;;11.03;;
23101;SDS011;11720;51.214;22.574;2022-10-28T03:27:57;24.97;;;12.10;;
23101;SDS011;11720;51.214;22.574;2022-10-28T03:30:23;23.03;;;11.93;;
23101;SDS011;11720;51.214;22.574;2022-10-28T03:32:49;22.50;;;12.20;;
23101;SDS011;11720;51.214;22.574;2022-10-28T03:35:18;21.87;;;11.77;;
23101;SDS011;11720;51.214;22.574;2022-10-28T03:37:44;22.93;;;10.77;;
23101;SDS011;11720;51.214;22.574;2022-10-28T03:40:10;18.43;;;11.17;;
23101;SDS011;11720;51.214;22.574;2022-10-28T03:42:39;16.33;;;9.93;;
23101;SDS011;11720;51.214;22.574;2022-10-28T03:45:08;18.43;;;10.60;;
23101;SDS011;11720;51.214;22.574;2022-10-28T03:47:34;28.60;;;11.30;;
23101;SDS011;11720;51.214;22.574;2022-10-28T03:50:01;19.50;;;10.50;;
23101;SDS011;11720;51.214;22.574;2022-10-28T03:52:27;19.93;;;11.23;;
23101;SDS011;11720;51.214;22.574;2022-10-28T03:54:53;22.63;;;10.43;;
23101;SDS011;11720;51.214;22.574;2022-10-28T03:57:19;24.27;;;11.47;;
23101;SDS011;11720;51.214;22.574;2022-10-28T03:59:45;28.20;;;12.57;;
23101;SDS011;11720;51.214;22.574;2022-10-28T04:02:11;24.30;;;11.73;;
23101;SDS011;11720;51.214;22.574;2022-10-28T04:04:39;30.57;;;13.33;;
23101;SDS011;11720;51.214;22.574;2022-10-28T04:07:05;24.47;;;12.77;;
23101;SDS011;11720;51.214;22.574;2022-10-28T04:09:31;23.10;;;10.50;;
23101;SDS011;11720;51.214;22.574;2022-10-28T04:12:00;27.73;;;11.27;;
23101;SDS011;11720;51.214;22.574;2022-10-28T04:14:26;20.30;;;10.90;;
23101;SDS011;11720;51.214;22.574;2022-10-28T04:16:52;21.93;;;10.67;;
23101;SDS011;11720;51.214;22.574;2022-10-28T04:19:18;32.93;;;14.37;;
23101;SDS011;11720;51.214;22.574;2022-10-28T04:21:46;25.40;;;12.37;;
23101;SDS011;11720;51.214;22.574;2022-10-28T04:24:12;25.43;;;9.97;;
23101;SDS011;11720;51.214;22.574;2022-10-28T04:26:40;18.47;;;10.90;;
23101;SDS011;11720;51.214;22.574;2022-10-28T04:29:06;20.97;;;10.47;;
23101;SDS011;11720;51.214;22.574;2022-10-28T04:31:32;24.37;;;11.53;;
23101;SDS011;11720;51.214;22.574;2022-10-28T04:34:01;20.93;;;11.03;;
23101;SDS011;11720;51.214;22.574;2022-10-28T04:36:32;25.00;;;10.80;;
23101;SDS011;11720;51.214;22.574;2022-10-28T04:38:58;19.40;;;9.87;;
23101;SDS011;11720;51.214;22.574;2022-10-28T04:41:24;18.37;;;9.80;;
23101;SDS011;11720;51.214;22.574;2022-10-28T04:43:50;21.00;;;11.13;;
23101;SDS011;11720;51.214;22.574;2022-10-28T04:46:18;24.03;;;10.67;;
23101;SDS011;11720;51.214;22.574;2022-10-28T04:48:45;22.40;;;11.50;;
23101;SDS011;11720;51.214;22.574;2022-10-28T04:51:11;23.53;;;11.33;;
23101;SDS011;11720;51.214;22.574;2022-10-28T04:53:37;18.37;;;10.20;;
23101;SDS011;11720;51.214;22.574;2022-10-28T04:56:03;19.10;;;10.57;;
23101;SDS011;11720;51.214;22.574;2022-10-28T04:58:30;17.07;;;8.47;;
23101;SDS011;11720;51.214;22.574;2022-10-28T05:01:00;20.53;;;10.50;;
23101;SDS011;11720;51.214;22.574;2022-10-28T05:03:37;16.17;;;8.90;;
23101;SDS011;11720;51.214;22.574;2022-10-28T05:06:06;18.00;;;8.93;;
23101;SDS011;11720;51.214;22.574;2022-10-28T05:08:32;18.07;;;8.60;;
23101;SDS011;11720;51.214;22.574;2022-10-28T05:11:00;22.57;;;9.67;;
23101;SDS011;11720;51.214;22.574;2022-10-28T05:13:40;15.57;;;9.80;;
23101;SDS011;11720;51.214;22.574;2022-10-28T05:16:09;17.97;;;10.20;;
23101;SDS011;11720;51.214;22.574;2022-10-28T05:18:44;22.47;;;12.10;;
23101;SDS011;11720;51.214;22.574;2022-10-28T05:21:12;27.20;;;12.57;;
23101;SDS011;11720;51.214;22.574;2022-10-28T05:23:41;25.17;;;10.63;;
23101;SDS011;11720;51.214;22.574;2022-10-28T05:26:07;19.67;;;9.37;;
23101;SDS011;11720;51.214;22.574;2022-10-28T05:28:33;17.57;;;9.07;;
23101;SDS011;11720;51.214;22.574;2022-10-28T05:30:59;17.20;;;8.77;;
23101;SDS011;11720;51.214;22.574;2022-10-28T05:33:25;20.50;;;10.63;;
23101;SDS011;11720;51.214;22.574;2022-10-28T05:35:51;18.80;;;9.50;;
23101;SDS011;11720;51.214;22.574;2022-10-28T05:38:17;20.30;;;9.50;;
23101;SDS011;11720;51.214;22.574;2022-10-28T05:40:43;20.50;;;9.80;;
23101;SDS011;11720;51.214;22.574;2022-10-28T05:43:09;28.37;;;13.73;;
23101;SDS011;11720;51.214;22.574;2022-10-28T05:45:38;15.20;;;8.10;;
23101;SDS011;11720;51.214;22.574;2022-10-28T05:48:04;18.30;;;8.73;;
23101;SDS011;11720;51.214;22.574;2022-10-28T05:50:30;23.60;;;10.03;;
23101;SDS011;11720;51.214;22.574;2022-10-28T05:52:57;23.97;;;10.57;;
23101;SDS011;11720;51.214;22.574;2022-10-28T05:55:24;17.70;;;8.67;;
23101;SDS011;11720;51.214;22.574;2022-10-28T05:57:58;18.73;;;9.80;;
23101;SDS011;11720;51.214;22.574;2022-10-28T06:00:24;22.30;;;9.37;;
23101;SDS011;11720;51.214;22.574;2022-10-28T06:02:53;23.10;;;11.53;;
23101;SDS011;11720;51.214;22.574;2022-10-28T06:05:29;21.53;;;10.57;;
23101;SDS011;11720;51.214;22.574;2022-10-28T06:07:57;18.30;;;9.70;;
23101;SDS011;11720;51.214;22.574;2022-10-28T06:10:23;22.63;;;9.77;;
23101;SDS011;11720;51.214;22.574;2022-10-28T06:12:49;24.30;;;11.47;;
23101;SDS011;11720;51.214;22.574;2022-10-28T06:15:15;24.00;;;10.50;;
23101;SDS011;11720;51.214;22.574;2022-10-28T06:17:41;24.07;;;10.13;;
23101;SDS011;11720;51.214;22.574;2022-10-28T06:20:07;31.00;;;11.37;;
23101;SDS011;11720;51.214;22.574;2022-10-28T06:22:33;25.63;;;9.83;;
23101;SDS011;11720;51.214;22.574;2022-10-28T06:24:59;27.37;;;11.10;;
23101;SDS011;11720;51.214;22.574;2022-10-28T06:27:25;19.83;;;10.17;;
23101;SDS011;11720;51.214;22.574;2022-10-28T06:29:51;28.13;;;12.43;;
23101;SDS011;11720;51.214;22.574;2022-10-28T06:32:17;27.73;;;11.03;;
23101;SDS011;11720;51.214;22.574;2022-10-28T06:34:43;26.53;;;11.20;;
23101;SDS011;11720;51.214;22.574;2022-10-28T06:37:08;30.53;;;11.60;;
23101;SDS011;11720;51.214;22.574;2022-10-28T06:39:34;26.53;;;11.83;;
23101;SDS011;11720;51.214;22.574;2022-10-28T06:42:02;25.20;;;10.87;;
23101;SDS011;11720;51.214;22.574;2022-10-28T06:44:27;30.40;;;14.13;;
23101;SDS011;11720;51.214;22.574;2022-10-28T06:46:54;27.20;;;12.13;;
23101;SDS011;11720;51.214;22.574;2022-10-28T06:49:19;28.10;;;12.40;;
23101;SDS011;11720;51.214;22.574;2022-10-28T06:51:45;27.77;;;12.33;;
23101;SDS011;11720;51.214;22.574;2022-10-28T06:54:11;33.47;;;13.20;;
23101;SDS011;11720;51.214;22.574;2022-10-28T06:56:36;39.97;;;17.00;;
23101;SDS011;11720;51.214;22.574;2022-10-28T06:59:02;28.80;;;12.63;;
23101;SDS011;11720;51.214;22.574;2022-10-28T07:01:28;27.10;;;13.33;;
23101;SDS011;11720;51.214;22.574;2022-10-28T07:03:53;37.80;;;13.67;;
23101;SDS011;11720;51.214;22.574;2022-10-28T07:06:19;27.63;;;11.67;;
23101;SDS011;11720;51.214;22.574;2022-10-28T07:08:44;23.23;;;12.00;;
23101;SDS011;11720;51.214;22.574;2022-10-28T07:11:10;38.53;;;13.53;;
23101;SDS011;11720;51.214;22.574;2022-10-28T07:13:36;35.03;;;14.33;;
23101;SDS011;11720;51.214;22.574;2022-10-28T07:16:01;29.47;;;14.03;;
23101;SDS011;11720;51.214;22.574;2022-10-28T07:18:28;26.90;;;13.97;;
23101;SDS011;11720;51.214;22.574;2022-10-28T07:20:56;26.20;;;12.20;;
23101;SDS011;11720;51.214;22.574;2022-10-28T07:23:25;28.67;;;11.97;;
23101;SDS011;11720;51.214;22.574;2022-10-28T07:25:52;33.20;;;15.13;;
23101;SDS011;11720;51.214;22.574;2022-10-28T07:28:19;29.53;;;14.17;;
23101;SDS011;11720;51.214;22.574;2022-10-28T07:30:46;38.87;;;13.63;;
23101;SDS011;11720;51.214;22.574;2022-10-28T07:33:12;28.53;;;14.10;;
23101;SDS011;11720;51.214;22.574;2022-10-28T07:35:37;29.30;;;14.38;;
23101;SDS011;11720;51.214;22.574;2022-10-28T07:38:03;39.33;;;16.07;;
23101;SDS011;11720;51.214;22.574;2022-10-28T07:40:29;36.50;;;16.17;;
23101;SDS011;11720;51.214;22.574;2022-10-28T07:42:54;40.03;;;16.93;;
23101;SDS011;11720;51.214;22.574;2022-10-28T07:45:21;39.40;;;18.77;;
23101;SDS011;11720;51.214;22.574;2022-10-28T07:47:47;26.93;;;12.90;;
23101;SDS011;11720;51.214;22.574;2022-10-28T07:50:13;39.17;;;16.25;;
23101;SDS011;11720;51.214;22.574;2022-10-28T07:52:39;38.23;;;15.30;;
23101;SDS011;11720;51.214;22.574;2022-10-28T07:55:05;29.10;;;15.35;;
23101;SDS011;11720;51.214;22.574;2022-10-28T07:57:35;36.50;;;16.00;;
23101;SDS011;11720;51.214;22.574;2022-10-28T08:00:01;43.95;;;15.77;;
23101;SDS011;11720;51.214;22.574;2022-10-28T08:02:29;34.37;;;15.90;;
23101;SDS011;11720;51.214;22.574;2022-10-28T08:04:54;34.10;;;13.90;;
23101;SDS011;11720;51.214;22.574;2022-10-28T08:07:21;38.45;;;14.77;;
23101;SDS011;11720;51.214;22.574;2022-10-28T08:09:47;34.58;;;14.65;;
23101;SDS011;11720;51.214;22.574;2022-10-28T08:12:13;39.50;;;16.08;;
23101;SDS011;11720;51.214;22.574;2022-10-28T08:14:39;33.38;;;15.38;;
23101;SDS011;11720;51.214;22.574;2022-10-28T08:17:05;31.87;;;15.10;;
23101;SDS011;11720;51.214;22.574;2022-10-28T08:19:31;33.20;;;15.00;;
23101;SDS011;11720;51.214;22.574;2022-10-28T08:21:57;31.25;;;15.10;;
23101;SDS011;11720;51.214;22.574;2022-10-28T08:24:23;31.95;;;14.52;;
23101;SDS011;11720;51.214;22.574;2022-10-28T08:26:49;30.23;;;12.77;;
23101;SDS011;11720;51.214;22.574;2022-10-28T08:29:15;33.40;;;15.45;;
23101;SDS011;11720;51.214;22.574;2022-10-28T08:31:41;29.63;;;13.15;;
23101;SDS011;11720;51.214;22.574;2022-10-28T08:34:06;27.58;;;14.07;;
23101;SDS011;11720;51.214;22.574;2022-10-28T08:36:32;28.90;;;14.77;;
23101;SDS011;11720;51.214;22.574;2022-10-28T08:38:58;27.08;;;15.05;;
23101;SDS011;11720;51.214;22.574;2022-10-28T08:41:44;28.25;;;14.00;;
23101;SDS011;11720;51.214;22.574;2022-10-28T08:49:49;24.08;;;12.25;;
23101;SDS011;11720;51.214;22.574;2022-10-28T08:55:03;25.27;;;12.05;;
23101;SDS011;11720;51.214;22.574;2022-10-28T09:00:03;23.25;;;13.40;;
23101;SDS011;11720;51.214;22.574;2022-10-28T09:02:36;18.17;;;11.48;;
23101;SDS011;11720;51.214;22.574;2022-10-28T09:05:18;22.90;;;11.65;;
23101;SDS011;11720;51.214;22.574;2022-10-28T09:07:48;22.83;;;10.82;;
23101;SDS011;11720;51.214;22.574;2022-10-28T09:10:15;17.98;;;8.55;;
23101;SDS011;11720;51.214;22.574;2022-10-28T09:18:19;29.65;;;13.93;;
23101;SDS011;11720;51.214;22.574;2022-10-28T09:20:54;17.38;;;8.25;;
23101;SDS011;11720;51.214;22.574;2022-10-28T09:23:35;18.17;;;9.18;;
23101;SDS011;11720;51.214;22.574;2022-10-28T09:26:08;15.13;;;8.57;;
23101;SDS011;11720;51.214;22.574;2022-10-28T09:28:49;18.42;;;7.75;;
23101;SDS011;11720;51.214;22.574;2022-10-28T09:36:54;13.40;;;7.55;;
23101;SDS011;11720;51.214;22.574;2022-10-28T09:39:38;15.10;;;7.38;;
23101;SDS011;11720;51.214;22.574;2022-10-28T09:42:07;15.95;;;8.30;;
23101;SDS011;11720;51.214;22.574;2022-10-28T09:44:40;16.88;;;6.68;;
23101;SDS011;11720;51.214;22.574;2022-10-28T09:47:19;11.07;;;6.72;;
23101;SDS011;11720;51.214;22.574;2022-10-28T09:49:49;9.95;;;5.57;;
23101;SDS011;11720;51.214;22.574;2022-10-28T09:52:20;10.60;;;6.20;;
23101;SDS011;11720;51.214;22.574;2022-10-28T09:54:49;11.43;;;5.78;;
23101;SDS011;11720;51.214;22.574;2022-10-28T09:57:17;8.23;;;4.97;;
23101;SDS011;11720;51.214;22.574;2022-10-28T09:59:43;10.95;;;5.05;;
23101;SDS011;11720;51.214;22.574;2022-10-28T10:02:20;10.25;;;5.50;;
23101;SDS011;11720;51.214;22.574;2022-10-28T10:04:51;8.57;;;3.90;;
23101;SDS011;11720;51.214;22.574;2022-10-28T10:07:23;7.40;;;4.00;;
23101;SDS011;11720;51.214;22.574;2022-10-28T10:10:02;7.60;;;4.15;;
23101;SDS011;11720;51.214;22.574;2022-10-28T10:12:31;6.95;;;4.13;;
23101;SDS011;11720;51.214;22.574;2022-10-28T10:14:58;6.70;;;3.92;;
23101;SDS011;11720;51.214;22.574;2022-10-28T10:17:58;9.38;;;4.57;;
23101;SDS011;11720;51.214;22.574;2022-10-28T10:20:17;8.23;;;3.72;;
23101;SDS011;11720;51.214;22.574;2022-10-28T10:22:45;11.43;;;3.50;;
23101;SDS011;11720;51.214;22.574;2022-10-28T10:27:41;5.65;;;3.45;;
23101;SDS011;11720;51.214;22.574;2022-10-28T10:30:15;7.22;;;3.65;;
23101;SDS011;11720;51.214;22.574;2022-10-28T10:32:46;5.60;;;2.95;;
23101;SDS011;11720;51.214;22.574;2022-10-28T10:37:41;6.65;;;2.92;;
23101;SDS011;11720;51.214;22.574;2022-10-28T10:42:41;17.10;;;8.68;;
23101;SDS011;11720;51.214;22.574;2022-10-28T10:47:46;6.55;;;3.45;;
23101;SDS011;11720;51.214;22.574;2022-10-28T10:50:18;6.97;;;3.35;;
23101;SDS011;11720;51.214;22.574;2022-10-28T10:52:47;5.53;;;3.78;;
23101;SDS011;11720;51.214;22.574;2022-10-28T10:55:48;6.15;;;3.30;;
23101;SDS011;11720;51.214;22.574;2022-10-28T10:58:15;5.55;;;3.55;;
23101;SDS011;11720;51.214;22.574;2022-10-28T11:00:48;6.43;;;3.33;;
23101;SDS011;11720;51.214;22.574;2022-10-28T11:06:06;7.68;;;3.92;;
23101;SDS011;11720;51.214;22.574;2022-10-28T11:11:02;4.70;;;3.28;;
23101;SDS011;11720;51.214;22.574;2022-10-28T11:13:44;4.72;;;2.90;;
23101;SDS011;11720;51.214;22.574;2022-10-28T11:16:21;7.13;;;3.97;;
23101;SDS011;11720;51.214;22.574;2022-10-28T11:18:49;5.97;;;3.22;;
23101;SDS011;11720;51.214;22.574;2022-10-28T11:26:53;6.38;;;3.63;;
23101;SDS011;11720;51.214;22.574;2022-10-28T11:29:28;5.88;;;3.17;;
23101;SDS011;11720;51.214;22.574;2022-10-28T11:32:27;8.43;;;3.42;;
23101;SDS011;11720;51.214;22.574;2022-10-28T11:40:20;7.88;;;3.17;;
23101;SDS011;11720;51.214;22.574;2022-10-28T11:45:53;6.85;;;3.95;;
23101;SDS011;11720;51.214;22.574;2022-10-28T11:57:47;6.00;;;3.45;;
23101;SDS011;11720;51.214;22.574;2022-10-28T12:00:36;6.57;;;3.78;;
23101;SDS011;11720;51.214;22.574;2022-10-28T12:03:04;7.55;;;4.35;;
23101;SDS011;11720;51.214;22.574;2022-10-28T12:05:44;6.28;;;3.72;;
23101;SDS011;11720;51.214;22.574;2022-10-28T12:08:36;6.25;;;3.60;;
23101;SDS011;11720;51.214;22.574;2022-10-28T12:17:07;11.82;;;4.00;;
23101;SDS011;11720;51.214;22.574;2022-10-28T12:19:43;6.00;;;3.95;;
23101;SDS011;11720;51.214;22.574;2022-10-28T12:24:57;7.45;;;4.40;;
23101;SDS011;11720;51.214;22.574;2022-10-28T12:27:33;9.77;;;3.88;;
23101;SDS011;11720;51.214;22.574;2022-10-28T12:30:23;18.50;;;4.05;;
23101;SDS011;11720;51.214;22.574;2022-10-28T12:32:59;6.28;;;3.42;;
23101;SDS011;11720;51.214;22.574;2022-10-28T12:39:00;8.52;;;3.50;;
23101;SDS011;11720;51.214;22.574;2022-10-28T12:41:14;10.43;;;3.38;;
23101;SDS011;11720;51.214;22.574;2022-10-28T12:44:06;6.18;;;3.55;;
23101;SDS011;11720;51.214;22.574;2022-10-28T12:46:56;7.13;;;4.22;;
23101;SDS011;11720;51.214;22.574;2022-10-28T12:52:18;6.10;;;3.45;;
23101;SDS011;11720;51.214;22.574;2022-10-28T12:57:37;5.80;;;3.88;;
23101;SDS011;11720;51.214;22.574;2022-10-28T13:00:15;7.35;;;3.88;;
23101;SDS011;11720;51.214;22.574;2022-10-28T13:02:47;8.07;;;3.42;;
23101;SDS011;11720;51.214;22.574;2022-10-28T13:05:46;7.13;;;4.03;;
23101;SDS011;11720;51.214;22.574;2022-10-28T13:11:25;7.30;;;3.47;;
23101;SDS011;11720;51.214;22.574;2022-10-28T13:25:32;9.70;;;3.85;;
23101;SDS011;11720;51.214;22.574;2022-10-28T13:28:10;7.63;;;3.95;;
23101;SDS011;11720;51.214;22.574;2022-10-28T13:30:50;5.68;;;3.83;;
23101;SDS011;11720;51.214;22.574;2022-10-28T13:33:25;7.28;;;4.45;;
23101;SDS011;11720;51.214;22.574;2022-10-28T13:36:38;10.35;;;3.85;;
23101;SDS011;11720;51.214;22.574;2022-10-28T13:38:57;7.40;;;4.22;;
23101;SDS011;11720;51.214;22.574;2022-10-28T13:41:29;6.80;;;3.92;;
23101;SDS011;11720;51.214;22.574;2022-10-28T13:43:56;8.57;;;4.03;;
23101;SDS011;11720;51.214;22.574;2022-10-28T13:49:23;7.85;;;4.53;;
23101;SDS011;11720;51.214;22.574;2022-10-28T13:57:18;6.80;;;4.18;;
23101;SDS011;11720;51.214;22.574;2022-10-28T14:00:08;7.63;;;4.35;;
23101;SDS011;11720;51.214;22.574;2022-10-28T14:11:04;10.27;;;4.28;;
23101;SDS011;11720;51.214;22.574;2022-10-28T14:16:38;7.10;;;4.35;;
23101;SDS011;11720;51.214;22.574;2022-10-28T14:22:18;5.35;;;3.63;;
23101;SDS011;11720;51.214;22.574;2022-10-28T14:29:31;11.48;;;5.68;;
23101;SDS011;11720;51.214;22.574;2022-10-28T14:35:02;11.05;;;4.18;;
23101;SDS011;11720;51.214;22.574;2022-10-28T14:44:00;8.35;;;4.40;;
23101;SDS011;11720;51.214;22.574;2022-10-28T14:46:50;10.43;;;4.65;;
23101;SDS011;11720;51.214;22.574;2022-10-28T14:49:25;7.68;;;4.22;;
23101;SDS011;11720;51.214;22.574;2022-10-28T14:51:54;12.15;;;4.35;;
23101;SDS011;11720;51.214;22.574;2022-10-28T14:54:41;14.07;;;7.25;;
23101;SDS011;11720;51.214;22.574;2022-10-28T14:57:12;8.80;;;4.13;;
23101;SDS011;11720;51.214;22.574;2022-10-28T14:59:41;8.98;;;4.80;;
23101;SDS011;11720;51.214;22.574;2022-10-28T15:02:18;11.00;;;4.90;;
23101;SDS011;11720;51.214;22.574;2022-10-28T15:05:26;9.38;;;5.10;;
23101;SDS011;11720;51.214;22.574;2022-10-28T15:07:47;12.00;;;5.28;;
23101;SDS011;11720;51.214;22.574;2022-10-28T15:10:25;10.02;;;6.28;;
23101;SDS011;11720;51.214;22.574;2022-10-28T15:12:54;15.25;;;4.53;;
23101;SDS011;11720;51.214;22.574;2022-10-28T15:15:22;11.05;;;5.57;;
23101;SDS011;11720;51.214;22.574;2022-10-28T15:17:49;14.13;;;5.88;;
23101;SDS011;11720;51.214;22.574;2022-10-28T15:22:44;20.02;;;5.75;;
23101;SDS011;11720;51.214;22.574;2022-10-28T15:27:37;10.25;;;5.32;;
23101;SDS011;11720;51.214;22.574;2022-10-28T15:30:15;8.82;;;4.82;;
23101;SDS011;11720;51.214;22.574;2022-10-28T15:32:45;11.02;;;4.68;;
23101;SDS011;11720;51.214;22.574;2022-10-28T15:40:53;9.32;;;5.03;;
23101;SDS011;11720;51.214;22.574;2022-10-28T15:43:20;9.45;;;5.43;;
23101;SDS011;11720;51.214;22.574;2022-10-28T15:45:50;8.85;;;4.25;;
23101;SDS011;11720;51.214;22.574;2022-10-28T15:48:18;6.45;;;4.22;;
23101;SDS011;11720;51.214;22.574;2022-10-28T15:51:09;10.77;;;5.20;;
23101;SDS011;11720;51.214;22.574;2022-10-28T15:53:44;7.63;;;5.15;;
23101;SDS011;11720;51.214;22.574;2022-10-28T15:56:21;9.48;;;4.65;;
23101;SDS011;11720;51.214;22.574;2022-10-28T16:01:29;11.05;;;5.95;;
23101;SDS011;11720;51.214;22.574;2022-10-28T16:03:55;12.82;;;6.40;;
23101;SDS011;11720;51.214;22.574;2022-10-28T16:06:26;16.88;;;6.53;;
23101;SDS011;11720;51.214;22.574;2022-10-28T16:11:35;13.30;;;6.10;;
23101;SDS011;11720;51.214;22.574;2022-10-28T16:19:38;8.13;;;5.10;;
23101;SDS011;11720;51.214;22.574;2022-10-28T16:22:10;13.40;;;7.00;;
23101;SDS011;11720;51.214;22.574;2022-10-28T16:24:37;11.02;;;5.80;;
23101;SDS011;11720;51.214;22.574;2022-10-28T16:27:23;13.80;;;5.43;;
23101;SDS011;11720;51.214;22.574;2022-10-28T16:29:54;11.07;;;6.38;;
23101;SDS011;11720;51.214;22.574;2022-10-28T16:32:25;13.55;;;6.07;;
23101;SDS011;11720;51.214;22.574;2022-10-28T16:35:00;14.45;;;8.80;;
23101;SDS011;11720;51.214;22.574;2022-10-28T16:37:27;16.10;;;7.88;;
23101;SDS011;11720;51.214;22.574;2022-10-28T16:39:55;15.45;;;7.25;;
23101;SDS011;11720;51.214;22.574;2022-10-28T16:42:22;17.38;;;7.55;;
23101;SDS011;11720;51.214;22.574;2022-10-28T16:44:48;17.45;;;8.43;;
23101;SDS011;11720;51.214;22.574;2022-10-28T16:47:18;18.08;;;7.82;;
23101;SDS011;11720;51.214;22.574;2022-10-28T16:49:45;18.52;;;7.28;;
23101;SDS011;11720;51.214;22.574;2022-10-28T16:52:16;14.80;;;7.18;;
23101;SDS011;11720;51.214;22.574;2022-10-28T16:54:46;17.38;;;8.00;;
23101;SDS011;11720;51.214;22.574;2022-10-28T16:57:13;15.70;;;7.80;;
23101;SDS011;11720;51.214;22.574;2022-10-28T16:59:40;17.58;;;8.75;;
23101;SDS011;11720;51.214;22.574;2022-10-28T17:04:48;27.42;;;9.65;;
23101;SDS011;11720;51.214;22.574;2022-10-28T17:07:13;18.63;;;8.80;;
23101;SDS011;11720;51.214;22.574;2022-10-28T17:09:43;18.80;;;10.02;;
23101;SDS011;11720;51.214;22.574;2022-10-28T17:12:10;20.35;;;8.98;;
23101;SDS011;11720;51.214;22.574;2022-10-28T17:14:42;20.27;;;9.15;;
23101;SDS011;11720;51.214;22.574;2022-10-28T17:17:08;18.92;;;9.15;;
23101;SDS011;11720;51.214;22.574;2022-10-28T17:19:38;16.77;;;8.63;;
23101;SDS011;11720;51.214;22.574;2022-10-28T17:22:04;20.95;;;9.30;;
23101;SDS011;11720;51.214;22.574;2022-10-28T17:24:31;15.25;;;7.95;;
23101;SDS011;11720;51.214;22.574;2022-10-28T17:26:57;25.08;;;9.07;;
23101;SDS011;11720;51.214;22.574;2022-10-28T17:29:24;17.88;;;8.77;;
23101;SDS011;11720;51.214;22.574;2022-10-28T17:31:49;23.65;;;9.25;;
23101;SDS011;11720;51.214;22.574;2022-10-28T17:34:15;13.00;;;7.45;;
23101;SDS011;11720;51.214;22.574;2022-10-28T17:36:41;17.70;;;7.72;;
23101;SDS011;11720;51.214;22.574;2022-10-28T17:39:07;16.65;;;7.05;;
23101;SDS011;11720;51.214;22.574;2022-10-28T17:41:33;15.50;;;8.00;;
23101;SDS011;11720;51.214;22.574;2022-10-28T17:43:59;13.52;;;7.72;;
23101;SDS011;11720;51.214;22.574;2022-10-28T17:46:24;13.80;;;7.07;;
23101;SDS011;11720;51.214;22.574;2022-10-28T17:48:50;20.23;;;6.32;;
23101;SDS011;11720;51.214;22.574;2022-10-28T17:51:16;18.77;;;7.53;;